createdAt,value
2019-06-20T00:02:04.709Z,31.73
2019-06-20T00:04:36.047Z,31.73
2019-06-20T00:07:07.370Z,31.82
2019-06-20T00:09:40.473Z,31.88
2019-06-20T00:12:13.075Z,32.01
2019-06-20T00:14:43.277Z,31.90
2019-06-20T00:17:14.854Z,31.94
2019-06-20T00:19:45.333Z,31.82
2019-06-20T00:22:16.035Z,31.54
2019-06-20T00:24:46.321Z,31.48
2019-06-20T00:27:16.362Z,31.31
2019-06-20T00:29:46.349Z,31.08
2019-06-20T00:32:17.334Z,30.88
2019-06-20T00:34:47.460Z,30.97
2019-06-20T00:37:19.248Z,30.76
2019-06-20T00:39:49.711Z,30.52
2019-06-20T00:42:24.826Z,30.41
2019-06-20T00:44:54.910Z,30.41
2019-06-20T00:47:25.108Z,30.05
2019-06-20T00:49:55.461Z,29.82
2019-06-20T00:52:35.078Z,29.55
2019-06-20T00:55:05.968Z,29.33
2019-06-20T00:57:38.207Z,29.12
2019-06-20T01:00:09.317Z,28.73
2019-06-20T01:02:40.855Z,28.54
2019-06-20T01:05:14.439Z,28.47
2019-06-20T01:07:45.377Z,28.53
2019-06-20T01:10:15.294Z,28.70
2019-06-20T01:12:46.229Z,28.50
2019-06-20T01:15:16.246Z,28.27
2019-06-20T01:17:48.484Z,28.49
2019-06-20T01:20:20.218Z,28.39
2019-06-20T01:23:01.674Z,28.52
2019-06-20T01:25:39.599Z,28.97
2019-06-20T01:28:09.643Z,28.99
2019-06-20T01:30:39.683Z,28.65
2019-06-20T01:33:09.707Z,28.65
2019-06-20T01:35:39.971Z,28.32
2019-06-20T01:38:10.383Z,28.63
2019-06-20T01:40:40.507Z,28.67
2019-06-20T01:43:10.564Z,28.76
2019-06-20T01:45:40.752Z,28.63
2019-06-20T01:48:10.823Z,28.53
2019-06-20T01:50:40.807Z,28.51
2019-06-20T01:53:19.247Z,28.49
2019-06-20T01:55:53.023Z,28.53
2019-06-20T01:58:23.079Z,28.25
2019-06-20T02:00:58.922Z,28.08
2019-06-20T02:03:32.902Z,28.06
2019-06-20T02:06:03.575Z,27.96
2019-06-20T02:08:34.407Z,28.08
2019-06-20T02:11:04.418Z,28.01
2019-06-20T02:13:34.366Z,28.06
2019-06-20T02:16:04.653Z,27.69
2019-06-20T02:18:36.557Z,27.74
2019-06-20T02:21:07.059Z,27.72
2019-06-20T02:23:40.010Z,27.77
2019-06-20T02:26:10.431Z,27.75
2019-06-20T02:28:42.393Z,27.50
2019-06-20T02:31:12.489Z,27.32
2019-06-20T02:33:42.532Z,27.50
2019-06-20T02:36:12.666Z,27.30
2019-06-20T02:38:42.890Z,27.30
2019-06-20T02:41:25.884Z,27.15
2019-06-20T02:43:55.859Z,27.53
2019-06-20T02:46:28.719Z,27.20
2019-06-20T02:48:59.247Z,27.14
2019-06-20T02:51:41.252Z,27.21
2019-06-20T02:54:36.962Z,27.07
2019-06-20T02:57:07.066Z,27.05
2019-06-20T02:59:44.189Z,27.02
2019-06-20T03:02:15.150Z,26.90
2019-06-20T03:04:46.330Z,26.76
2019-06-20T03:07:22.753Z,26.77
2019-06-20T03:09:55.060Z,26.44
2019-06-20T03:12:31.805Z,26.44
2019-06-20T03:15:04.809Z,26.45
2019-06-20T03:17:35.710Z,26.42
2019-06-20T03:20:16.473Z,26.32
2019-06-20T03:22:51.245Z,26.32
2019-06-20T03:25:35.370Z,26.45
2019-06-20T03:28:08.312Z,26.33
2019-06-20T03:30:41.959Z,26.18
2019-06-20T03:33:12.877Z,26.00
2019-06-20T03:35:43.875Z,25.97
2019-06-20T03:38:17.198Z,25.82
2019-06-20T03:40:50.439Z,25.96
2019-06-20T03:43:21.506Z,25.97
2019-06-20T03:45:52.556Z,25.87
2019-06-20T03:48:24.048Z,25.84
2019-06-20T03:50:56.763Z,25.76
2019-06-20T03:53:28.379Z,26.02
2019-06-20T03:55:59.678Z,26.02
2019-06-20T03:58:30.679Z,26.02
2019-06-20T04:01:05.674Z,26.17
2019-06-20T04:03:37.165Z,25.87
2019-06-20T04:06:08.304Z,25.91
2019-06-20T04:08:39.669Z,26.06
2019-06-20T04:11:10.680Z,26.27
2019-06-20T04:13:42.072Z,25.99
2019-06-20T04:16:55.736Z,26.14
2019-06-20T04:19:56.479Z,26.26
2019-06-20T04:22:31.091Z,26.12
2019-06-20T04:25:32.808Z,26.20
2019-06-20T04:28:19.710Z,26.24
2019-06-20T04:31:01.271Z,26.43
2019-06-20T04:33:50.706Z,26.89
2019-06-20T04:36:37.712Z,27.12
2019-06-20T04:39:39.033Z,27.18
2019-06-20T04:42:32.821Z,27.01
2019-06-20T04:45:34.144Z,27.18
2019-06-20T04:48:19.016Z,27.45
2019-06-20T04:51:39.901Z,27.84
2019-06-20T04:54:28.270Z,28.38
2019-06-20T04:57:15.367Z,28.94
2019-06-20T05:00:07.078Z,29.37
2019-06-20T05:02:39.007Z,29.37
2019-06-20T05:05:12.651Z,29.61
2019-06-20T05:07:43.927Z,29.72
2019-06-20T05:10:16.451Z,30.10
2019-06-20T05:12:46.473Z,30.58
2019-06-20T05:15:17.710Z,31.16
2019-06-20T05:17:49.997Z,30.50
2019-06-20T05:20:24.676Z,29.72
2019-06-20T05:22:56.297Z,29.42
2019-06-20T05:25:31.134Z,29.18
2019-06-20T05:28:04.037Z,29.84
2019-06-20T05:34:58.508Z,29.83
2019-06-20T05:38:40.334Z,31.05
2019-06-20T05:45:20.449Z,31.22
2019-06-20T05:47:50.924Z,30.33
2019-06-20T05:50:22.481Z,31.02
2019-06-20T05:52:55.308Z,31.75
2019-06-20T05:55:43.132Z,31.92
2019-06-20T05:58:17.187Z,32.25
2019-06-20T06:00:51.839Z,32.61
2019-06-20T06:03:23.361Z,32.82
2019-06-20T06:06:05.421Z,33.09
2019-06-20T06:08:37.018Z,33.11
2019-06-20T06:11:08.925Z,33.08
2019-06-20T06:13:39.312Z,32.67
2019-06-20T06:16:26.118Z,32.21
2019-06-20T06:19:30.299Z,32.17
2019-06-20T06:22:03.290Z,32.39
2019-06-20T06:24:46.464Z,32.40
2019-06-20T06:27:38.668Z,32.55
2019-06-20T06:30:17.032Z,32.84
2019-06-20T06:32:54.842Z,33.35
2019-06-20T06:35:26.504Z,33.65
2019-06-20T06:37:58.005Z,33.81
2019-06-20T06:40:30.521Z,33.66
2019-06-20T06:43:01.513Z,34.19
2019-06-20T06:45:44.755Z,34.72
2019-06-20T06:48:38.778Z,34.49
2019-06-20T06:51:55.988Z,34.41
2019-06-20T06:54:34.703Z,33.83
2019-06-20T06:57:20.302Z,33.80
2019-06-20T07:00:06.305Z,33.42
2019-06-20T07:02:37.338Z,32.73
2019-06-20T07:05:09.963Z,31.97
2019-06-20T07:07:41.767Z,31.82
2019-06-20T07:10:16.281Z,31.88
2019-06-20T07:12:48.235Z,31.93
2019-06-20T07:15:19.292Z,31.76
2019-06-20T07:17:50.287Z,31.89
2019-06-20T07:20:21.600Z,31.94
2019-06-20T07:22:55.376Z,32.06
2019-06-20T07:25:26.999Z,32.28
2019-06-20T07:27:58.885Z,32.20
2019-06-20T07:30:29.836Z,31.95
2019-06-20T07:33:00.993Z,32.12
2019-06-20T07:35:32.336Z,32.09
2019-06-20T07:38:28.126Z,31.91
2019-06-20T07:41:00.977Z,32.27
2019-06-20T07:43:32.049Z,32.27
2019-06-20T07:49:47.505Z,31.57
2019-06-20T07:53:02.079Z,31.37
2019-06-20T07:55:43.429Z,31.27
2019-06-20T07:58:23.301Z,31.32
2019-06-20T08:04:19.094Z,32.04
2019-06-20T08:07:17.743Z,32.03
2019-06-20T08:10:17.438Z,32.03
2019-06-20T08:19:07.830Z,31.84
2019-06-20T08:22:14.121Z,31.87
2019-06-20T08:25:17.533Z,31.85
2019-06-20T08:31:08.908Z,32.18
2019-06-20T08:33:41.297Z,32.35
2019-06-20T08:36:13.511Z,32.76
2019-06-20T08:39:00.171Z,32.76
2019-06-20T08:41:31.974Z,33.70
2019-06-20T08:44:04.474Z,34.54
2019-06-20T08:47:07.208Z,34.60
2019-06-20T08:50:11.820Z,34.24
2019-06-20T08:53:01.639Z,34.17
2019-06-20T08:56:07.155Z,34.38
2019-06-20T08:59:23.964Z,34.48
2019-06-20T09:02:37.642Z,34.28
2019-06-20T09:05:51.776Z,34.52
2019-06-20T09:12:13.733Z,34.06
2019-06-20T09:15:23.102Z,34.45
2019-06-20T09:18:45.078Z,35.03
2019-06-20T09:21:36.983Z,34.70
2019-06-20T09:24:48.491Z,34.44
2019-06-20T09:31:10.229Z,34.31
2019-06-20T09:34:44.067Z,34.52
2019-06-20T09:44:40.033Z,34.02
2019-06-20T09:54:48.484Z,33.05
2019-06-20T09:58:18.955Z,34.12
2019-06-20T10:04:57.190Z,34.25
2019-06-20T10:11:59.275Z,34.22
2019-06-20T10:20:54.843Z,34.67
2019-06-20T10:23:31.353Z,35.04
2019-06-20T10:26:04.282Z,35.52
2019-06-20T10:28:40.400Z,35.52
2019-06-20T10:32:06.082Z,35.86
2019-06-20T10:35:17.990Z,36.22
2019-06-20T10:41:11.200Z,36.16
2019-06-20T10:43:42.994Z,36.76
2019-06-20T10:46:18.670Z,37.42
2019-06-20T10:49:15.529Z,37.14
2019-06-20T10:52:08.715Z,37.18
2019-06-20T10:54:41.673Z,37.88
2019-06-20T10:57:13.292Z,38.40
2019-06-20T10:59:44.379Z,38.02
2019-06-20T11:02:16.487Z,38.16
2019-06-20T11:04:47.775Z,37.75
2019-06-20T11:07:21.460Z,37.42
2019-06-20T11:09:52.638Z,37.46
2019-06-20T11:12:23.751Z,37.09
2019-06-20T11:14:55.836Z,36.45
2019-06-20T11:17:27.331Z,36.50
2019-06-20T11:19:58.372Z,36.15
2019-06-20T11:22:29.414Z,36.48
2019-06-20T11:25:00.269Z,36.55
2019-06-20T11:27:31.555Z,36.84
2019-06-20T11:30:02.549Z,36.59
2019-06-20T11:32:33.389Z,36.59
2019-06-20T11:35:09.563Z,36.38
2019-06-20T11:41:22.926Z,35.79
2019-06-20T11:44:03.035Z,35.20
2019-06-20T11:46:35.300Z,35.67
2019-06-20T11:49:06.887Z,35.80
2019-06-20T11:51:39.839Z,35.55
2019-06-20T11:54:13.770Z,35.44
2019-06-20T11:56:53.132Z,35.99
2019-06-20T11:59:37.454Z,36.37
2019-06-20T12:02:12.368Z,36.70
2019-06-20T12:04:47.166Z,35.82
2019-06-20T12:07:25.531Z,34.80
2019-06-20T12:09:59.643Z,34.12
2019-06-20T12:12:34.112Z,33.22
2019-06-20T12:15:11.578Z,33.13
2019-06-20T12:17:45.224Z,32.97
2019-06-20T12:20:16.687Z,33.00
2019-06-20T12:22:58.191Z,32.83
2019-06-20T12:25:29.980Z,32.80
2019-06-20T12:28:00.893Z,33.29
2019-06-20T12:30:35.297Z,33.29
2019-06-20T12:33:06.275Z,33.38
2019-06-20T12:35:48.590Z,33.47
2019-06-20T12:38:21.645Z,33.61
2019-06-20T12:40:53.531Z,33.79
2019-06-20T12:43:27.249Z,33.68
2019-06-20T12:46:01.822Z,33.65
2019-06-20T12:48:34.656Z,33.61
2019-06-20T12:51:11.812Z,33.45
2019-06-20T12:53:47.235Z,33.22
2019-06-20T12:56:22.201Z,33.50
2019-06-20T12:59:04.226Z,33.22
2019-06-20T13:01:47.345Z,32.91
2019-06-20T13:04:30.112Z,33.09
2019-06-20T13:07:00.590Z,33.59
2019-06-20T13:09:32.109Z,34.22
2019-06-20T13:12:07.926Z,34.54
2019-06-20T13:14:48.008Z,34.93
2019-06-20T13:17:21.159Z,35.46
2019-06-20T13:20:11.685Z,35.90
2019-06-20T13:22:47.158Z,35.90
2019-06-20T13:25:32.660Z,35.60
2019-06-20T13:28:26.818Z,35.17
2019-06-20T13:31:03.218Z,35.01
2019-06-20T13:33:49.023Z,34.81
2019-06-20T13:36:28.396Z,34.84
2019-06-20T13:39:10.620Z,34.93
2019-06-20T13:41:52.826Z,35.11
2019-06-20T13:44:24.344Z,35.58
2019-06-20T13:46:58.473Z,36.57
2019-06-20T13:49:35.809Z,37.27
2019-06-20T13:52:10.268Z,37.55
2019-06-20T13:54:43.030Z,38.28
2019-06-20T13:57:18.550Z,38.87
2019-06-20T13:59:52.640Z,38.93
2019-06-20T14:02:22.506Z,39.12
2019-06-20T14:04:53.869Z,38.65
2019-06-20T14:07:32.121Z,38.20
2019-06-20T14:10:34.504Z,38.06
2019-06-20T14:13:19.772Z,38.64
2019-06-20T14:15:58.261Z,38.48
2019-06-20T14:18:34.098Z,38.25
2019-06-20T14:21:05.849Z,38.11
2019-06-20T14:23:37.885Z,38.01
2019-06-20T14:26:14.573Z,37.96
2019-06-20T14:28:49.086Z,38.00
2019-06-20T14:31:29.366Z,37.72
2019-06-20T14:34:20.588Z,37.89
2019-06-20T14:36:52.277Z,37.76
2019-06-20T14:39:38.987Z,37.45
2019-06-20T14:42:10.665Z,36.91
2019-06-20T14:44:46.419Z,36.37
2019-06-20T14:47:25.663Z,36.28
2019-06-20T14:50:03.374Z,36.47
2019-06-20T14:52:46.628Z,36.72
2019-06-20T14:55:18.115Z,35.98
2019-06-20T14:57:55.118Z,35.17
2019-06-20T15:00:36.249Z,34.29
2019-06-20T15:03:10.771Z,32.97
2019-06-20T15:05:52.636Z,32.97
2019-06-20T15:08:24.435Z,32.12
2019-06-20T15:10:56.225Z,31.56
2019-06-20T15:13:28.194Z,31.11
2019-06-20T15:16:00.118Z,31.11
2019-06-20T15:18:32.091Z,30.86
2019-06-20T15:21:07.379Z,30.68
2019-06-20T15:23:42.779Z,31.02
2019-06-20T15:26:20.088Z,31.20
2019-06-20T15:28:53.417Z,31.20
2019-06-20T15:31:44.143Z,31.98
2019-06-20T15:34:15.921Z,31.98
2019-06-20T15:36:55.659Z,32.46
2019-06-20T15:39:46.705Z,33.14
2019-06-20T15:42:18.293Z,33.67
2019-06-20T15:45:05.921Z,34.27
2019-06-20T15:47:53.417Z,35.21
2019-06-20T15:50:40.247Z,35.21
2019-06-20T15:53:10.164Z,35.79
2019-06-20T15:55:48.912Z,36.74
2019-06-20T15:58:34.556Z,37.53
2019-06-20T16:01:14.048Z,37.83
2019-06-20T16:03:52.547Z,37.96
2019-06-20T16:07:08.414Z,38.09
2019-06-20T16:09:40.172Z,38.06
2019-06-20T16:12:15.305Z,38.14
2019-06-20T16:14:47.073Z,38.14
2019-06-20T16:17:20.864Z,38.31
2019-06-20T16:20:33.306Z,38.51
2019-06-20T16:23:05.074Z,38.67
2019-06-20T16:25:36.814Z,38.89
2019-06-20T16:28:26.111Z,39.04
2019-06-20T16:31:10.046Z,38.87
2019-06-20T16:33:39.230Z,38.87
2019-06-20T16:36:13.043Z,38.96
2019-06-20T16:38:47.255Z,38.96
2019-06-20T16:41:40.203Z,38.74
2019-06-20T16:44:21.082Z,38.55
2019-06-20T16:46:53.553Z,38.83
2019-06-20T16:49:35.648Z,38.68
2019-06-20T16:52:09.297Z,38.16
2019-06-20T16:54:55.077Z,36.51
2019-06-20T16:57:50.889Z,36.51
2019-06-20T17:00:40.760Z,35.98
2019-06-20T17:03:23.174Z,35.52
2019-06-20T17:05:58.339Z,36.16
2019-06-20T17:08:30.226Z,36.60
2019-06-20T17:11:16.852Z,36.65
2019-06-20T17:13:53.449Z,36.57
2019-06-20T17:16:35.286Z,36.61
2019-06-20T17:19:11.614Z,36.84
2019-06-20T17:22:02.426Z,37.97
2019-06-20T17:24:41.749Z,37.97
2019-06-20T17:27:29.253Z,38.08
2019-06-20T17:30:01.543Z,38.09
2019-06-20T17:32:34.095Z,37.90
2019-06-20T17:35:20.533Z,37.90
2019-06-20T17:38:01.047Z,37.92
2019-06-20T17:40:51.202Z,37.92
2019-06-20T17:43:30.852Z,37.95
2019-06-20T17:46:05.038Z,38.09
2019-06-20T17:48:50.243Z,37.92
2019-06-20T17:51:34.015Z,37.25
2019-06-20T17:54:13.141Z,36.81
2019-06-20T17:56:48.028Z,36.81
2019-06-20T17:59:30.334Z,36.60
2019-06-20T18:02:19.238Z,36.13
2019-06-20T18:05:05.989Z,35.41
2019-06-20T18:07:40.942Z,35.21
2019-06-20T18:10:57.237Z,35.28
2019-06-20T18:13:34.560Z,35.23
2019-06-20T18:16:06.547Z,34.72
2019-06-20T18:18:38.545Z,34.43
2019-06-20T18:21:10.375Z,34.46
2019-06-20T18:23:49.630Z,34.35
2019-06-20T18:26:50.611Z,33.83
2019-06-20T18:29:24.875Z,33.77
2019-06-20T18:32:04.649Z,33.69
2019-06-20T18:34:39.309Z,33.56
2019-06-20T18:37:31.654Z,33.11
2019-06-20T18:40:03.181Z,32.70
2019-06-20T18:42:38.085Z,32.24
2019-06-20T18:45:10.164Z,31.95
2019-06-20T18:47:52.032Z,31.61
2019-06-20T18:50:25.605Z,31.72
2019-06-20T18:53:05.939Z,31.72
2019-06-20T18:55:49.480Z,31.40
2019-06-20T18:58:29.050Z,31.29
2019-06-20T19:01:00.974Z,31.21
2019-06-20T19:03:32.795Z,30.91
2019-06-20T19:06:07.487Z,30.76
2019-06-20T19:08:39.384Z,30.84
2019-06-20T19:11:11.269Z,30.66
2019-06-20T19:13:55.471Z,30.68
2019-06-20T19:16:24.526Z,30.52
2019-06-20T19:19:11.248Z,30.14
2019-06-20T19:21:46.521Z,30.15
2019-06-20T19:24:33.332Z,30.12
2019-06-20T19:27:06.874Z,30.00
2019-06-20T19:29:42.465Z,29.69
2019-06-20T19:32:16.280Z,29.62
2019-06-20T19:35:13.150Z,29.42
2019-06-20T19:37:47.199Z,29.44
2019-06-20T19:40:42.754Z,29.14
2019-06-20T19:43:23.141Z,29.20
2019-06-20T19:45:57.941Z,29.12
2019-06-20T19:48:29.656Z,29.07
2019-06-20T19:51:02.715Z,28.57
2019-06-20T19:53:40.375Z,28.31
2019-06-20T19:56:49.207Z,28.43
2019-06-20T19:59:28.893Z,28.25
2019-06-20T20:02:19.537Z,28.28
2019-06-20T20:04:53.277Z,28.31
2019-06-20T20:07:26.954Z,28.32
2019-06-20T20:10:00.773Z,28.27
2019-06-20T20:12:43.677Z,28.43
2019-06-20T20:15:17.883Z,28.51
2019-06-20T20:17:56.717Z,28.49
2019-06-20T20:20:28.474Z,28.58
2019-06-20T20:23:12.191Z,28.60
2019-06-20T20:25:59.709Z,28.54
2019-06-20T20:28:30.668Z,28.34
2019-06-20T20:31:02.001Z,28.42
2019-06-20T20:33:35.323Z,28.24
2019-06-20T20:36:06.111Z,28.24
2019-06-20T20:38:39.209Z,28.03
2019-06-20T20:41:10.013Z,28.00
2019-06-20T20:43:40.893Z,28.04
2019-06-20T20:46:27.166Z,27.87
2019-06-20T20:49:02.787Z,27.65
2019-06-20T20:51:44.399Z,27.31
2019-06-20T20:54:29.702Z,27.17
2019-06-20T20:57:02.061Z,27.02
2019-06-20T20:59:33.986Z,26.96
2019-06-20T21:02:17.228Z,26.91
2019-06-20T21:05:05.604Z,26.70
2019-06-20T21:08:14.067Z,26.76
2019-06-20T21:10:45.340Z,26.58
2019-06-20T21:13:20.472Z,26.71
2019-06-20T21:15:56.477Z,26.52
2019-06-20T21:18:54.336Z,26.45
2019-06-20T21:21:39.680Z,26.38
2019-06-20T21:24:38.389Z,26.30
2019-06-20T21:27:11.863Z,26.42
2019-06-20T21:29:45.413Z,26.58
2019-06-20T21:32:16.376Z,26.74
2019-06-20T21:35:03.562Z,26.66
2019-06-20T21:37:52.456Z,26.75
2019-06-20T21:40:19.973Z,26.85
2019-06-20T21:42:59.694Z,26.82
2019-06-20T21:45:59.656Z,26.89
2019-06-20T21:51:37.093Z,26.88
2019-06-20T21:54:08.886Z,27.18
2019-06-20T21:56:54.917Z,27.11
2019-06-20T21:59:33.455Z,27.11
2019-06-20T22:02:05.721Z,27.03
2019-06-20T22:04:53.771Z,27.04
2019-06-20T22:07:13.834Z,27.25
2019-06-20T22:09:47.024Z,27.25
2019-06-20T22:12:24.131Z,27.17
2019-06-20T22:15:00.886Z,26.77
2019-06-20T22:17:32.572Z,26.77
2019-06-20T22:20:07.830Z,26.97
2019-06-20T22:22:39.682Z,26.92
2019-06-20T22:28:28.227Z,27.09
2019-06-20T22:31:05.573Z,26.76
2019-06-20T22:33:53.444Z,26.76
2019-06-20T22:36:39.497Z,26.82
2019-06-20T22:39:11.776Z,27.12
2019-06-20T22:41:43.294Z,27.25
2019-06-20T22:44:26.702Z,27.39
2019-06-20T22:46:58.926Z,27.24
2019-06-20T22:49:33.506Z,27.08
2019-06-20T22:52:19.693Z,26.69
2019-06-20T22:55:02.978Z,26.46
2019-06-20T22:57:40.564Z,26.40
2019-06-20T23:00:24.238Z,26.47
2019-06-20T23:02:55.307Z,26.49
2019-06-20T23:05:29.422Z,26.48
2019-06-20T23:08:02.899Z,26.75
2019-06-20T23:10:37.975Z,26.83
2019-06-20T23:13:14.977Z,26.76
2019-06-20T23:15:56.523Z,26.78
2019-06-20T23:18:32.512Z,26.47
2019-06-20T23:21:22.786Z,26.25
2019-06-20T23:24:09.597Z,26.40
2019-06-20T23:26:41.326Z,26.61
2019-06-20T23:29:27.106Z,26.56
2019-06-20T23:32:00.358Z,26.24
2019-06-20T23:34:33.999Z,25.90
2019-06-20T23:37:12.853Z,25.81
2019-06-20T23:39:39.598Z,25.69
2019-06-20T23:42:10.348Z,25.86
2019-06-20T23:44:41.258Z,26.00
2019-06-20T23:47:13.311Z,25.96
2019-06-20T23:49:44.616Z,25.86
2019-06-20T23:52:19.222Z,26.11
2019-06-20T23:54:50.183Z,26.09
